sensor_id;sensor_type;location;lat;lon;timestamp;temperature;humidity
37806;DHT22;25082;50.870;0.022;2023-07-13T00:01:44;21.40;70.50
37806;DHT22;25082;50.870;0.022;2023-07-13T00:04:11;21.40;70.60
37806;DHT22;25082;50.870;0.022;2023-07-13T00:06:37;21.40;70.50
37806;DHT22;25082;50.870;0.022;2023-07-13T00:09:03;21.40;70.50
37806;DHT22;25082;50.870;0.022;2023-07-13T00:11:28;21.40;70.60
37806;DHT22;25082;50.870;0.022;2023-07-13T00:13:55;21.40;70.60
37806;DHT22;25082;50.870;0.022;2023-07-13T00:16:20;21.40;70.60
37806;DHT22;25082;50.870;0.022;2023-07-13T00:18:47;21.40;70.60
37806;DHT22;25082;50.870;0.022;2023-07-13T00:21:13;21.40;70.60
37806;DHT22;25082;50.870;0.022;2023-07-13T00:23:41;21.40;70.60
37806;DHT22;25082;50.870;0.022;2023-07-13T00:26:09;21.40;70.60
37806;DHT22;25082;50.870;0.022;2023-07-13T00:28:36;21.40;70.60
37806;DHT22;25082;50.870;0.022;2023-07-13T00:31:02;21.40;70.60
37806;DHT22;25082;50.870;0.022;2023-07-13T00:33:28;21.40;70.60
37806;DHT22;25082;50.870;0.022;2023-07-13T00:35:55;21.30;70.60
37806;DHT22;25082;50.870;0.022;2023-07-13T00:38:22;21.40;70.60
37806;DHT22;25082;50.870;0.022;2023-07-13T00:40:48;21.40;70.60
37806;DHT22;25082;50.870;0.022;2023-07-13T00:43:21;21.30;70.60
37806;DHT22;25082;50.870;0.022;2023-07-13T00:48:16;21.30;70.60
37806;DHT22;25082;50.870;0.022;2023-07-13T00:50:44;21.30;70.60
37806;DHT22;25082;50.870;0.022;2023-07-13T00:53:10;21.40;70.70
37806;DHT22;25082;50.870;0.022;2023-07-13T00:55:37;21.40;70.60
37806;DHT22;25082;50.870;0.022;2023-07-13T00:58:04;21.30;70.70
37806;DHT22;25082;50.870;0.022;2023-07-13T01:00:33;21.30;70.60
37806;DHT22;25082;50.870;0.022;2023-07-13T01:03:00;21.30;70.60
37806;DHT22;25082;50.870;0.022;2023-07-13T01:05:31;21.30;70.60
37806;DHT22;25082;50.870;0.022;2023-07-13T01:08:01;21.30;70.60
37806;DHT22;25082;50.870;0.022;2023-07-13T01:10:27;21.30;70.60
37806;DHT22;25082;50.870;0.022;2023-07-13T01:12:53;21.30;70.60
37806;DHT22;25082;50.870;0.022;2023-07-13T01:15:40;21.30;70.60
37806;DHT22;25082;50.870;0.022;2023-07-13T01:18:18;21.30;70.60
37806;DHT22;25082;50.870;0.022;2023-07-13T01:21:03;21.30;70.60
37806;DHT22;25082;50.870;0.022;2023-07-13T01:23:31;21.30;70.60
37806;DHT22;25082;50.870;0.022;2023-07-13T01:25:58;21.30;70.60
37806;DHT22;25082;50.870;0.022;2023-07-13T01:28:25;21.30;70.60
37806;DHT22;25082;50.870;0.022;2023-07-13T01:30:53;21.30;70.60
37806;DHT22;25082;50.870;0.022;2023-07-13T01:33:20;21.30;70.70
37806;DHT22;25082;50.870;0.022;2023-07-13T01:35:46;21.30;70.60
37806;DHT22;25082;50.870;0.022;2023-07-13T01:38:15;21.30;70.60
37806;DHT22;25082;50.870;0.022;2023-07-13T01:40:43;21.30;70.60
37806;DHT22;25082;50.870;0.022;2023-07-13T01:43:09;21.20;70.60
37806;DHT22;25082;50.870;0.022;2023-07-13T01:45:35;21.20;70.60
37806;DHT22;25082;50.870;0.022;2023-07-13T01:48:00;21.30;70.60
37806;DHT22;25082;50.870;0.022;2023-07-13T01:50:26;21.20;70.60
37806;DHT22;25082;50.870;0.022;2023-07-13T01:52:53;21.20;70.60
37806;DHT22;25082;50.870;0.022;2023-07-13T01:55:19;21.20;70.60
37806;DHT22;25082;50.870;0.022;2023-07-13T01:57:45;21.20;70.60
37806;DHT22;25082;50.870;0.022;2023-07-13T02:00:12;21.20;70.60
37806;DHT22;25082;50.870;0.022;2023-07-13T02:02:39;21.20;70.60
37806;DHT22;25082;50.870;0.022;2023-07-13T02:05:05;21.20;70.50
37806;DHT22;25082;50.870;0.022;2023-07-13T02:07:31;21.20;70.50
37806;DHT22;25082;50.870;0.022;2023-07-13T02:09:57;21.20;70.50
37806;DHT22;25082;50.870;0.022;2023-07-13T02:12:23;21.20;70.60
37806;DHT22;25082;50.870;0.022;2023-07-13T02:14:49;21.20;70.50
37806;DHT22;25082;50.870;0.022;2023-07-13T02:17:15;21.20;70.60
37806;DHT22;25082;50.870;0.022;2023-07-13T02:19:41;21.20;70.50
37806;DHT22;25082;50.870;0.022;2023-07-13T02:22:06;21.20;70.60
37806;DHT22;25082;50.870;0.022;2023-07-13T02:24:32;21.20;70.60
37806;DHT22;25082;50.870;0.022;2023-07-13T02:26:58;21.20;70.60
37806;DHT22;25082;50.870;0.022;2023-07-13T02:29:24;21.20;70.50
37806;DHT22;25082;50.870;0.022;2023-07-13T02:31:50;21.20;70.50
37806;DHT22;25082;50.870;0.022;2023-07-13T02:34:15;21.10;70.50
37806;DHT22;25082;50.870;0.022;2023-07-13T02:36:41;21.10;70.50
37806;DHT22;25082;50.870;0.022;2023-07-13T02:39:07;21.20;70.50
37806;DHT22;25082;50.870;0.022;2023-07-13T02:41:33;21.20;70.60
37806;DHT22;25082;50.870;0.022;2023-07-13T02:43:59;21.10;70.50
37806;DHT22;25082;50.870;0.022;2023-07-13T02:46:33;21.10;70.50
37806;DHT22;25082;50.870;0.022;2023-07-13T02:49:00;21.10;70.50
37806;DHT22;25082;50.870;0.022;2023-07-13T02:51:26;21.10;70.50
37806;DHT22;25082;50.870;0.022;2023-07-13T02:53:52;21.20;70.60
37806;DHT22;25082;50.870;0.022;2023-07-13T02:56:22;21.10;70.50
37806;DHT22;25082;50.870;0.022;2023-07-13T02:58:48;21.10;70.50
37806;DHT22;25082;50.870;0.022;2023-07-13T03:01:14;21.10;70.50
37806;DHT22;25082;50.870;0.022;2023-07-13T03:03:44;21.10;70.50
37806;DHT22;25082;50.870;0.022;2023-07-13T03:06:11;21.10;70.50
37806;DHT22;25082;50.870;0.022;2023-07-13T03:08:37;21.10;70.50
37806;DHT22;25082;50.870;0.022;2023-07-13T03:11:09;21.10;70.50
37806;DHT22;25082;50.870;0.022;2023-07-13T03:13:37;21.10;70.50
37806;DHT22;25082;50.870;0.022;2023-07-13T03:16:03;21.10;70.50
37806;DHT22;25082;50.870;0.022;2023-07-13T03:18:29;21.10;70.40
37806;DHT22;25082;50.870;0.022;2023-07-13T03:20:54;21.10;70.50
37806;DHT22;25082;50.870;0.022;2023-07-13T03:23:21;21.10;70.50
37806;DHT22;25082;50.870;0.022;2023-07-13T03:25:47;21.10;70.50
37806;DHT22;25082;50.870;0.022;2023-07-13T03:28:14;21.10;70.50
37806;DHT22;25082;50.870;0.022;2023-07-13T03:30:41;21.10;70.50
37806;DHT22;25082;50.870;0.022;2023-07-13T03:33:07;21.10;70.50
37806;DHT22;25082;50.870;0.022;2023-07-13T03:35:34;21.10;70.40
37806;DHT22;25082;50.870;0.022;2023-07-13T03:38:00;21.10;70.40
37806;DHT22;25082;50.870;0.022;2023-07-13T03:40:29;21.00;70.40
37806;DHT22;25082;50.870;0.022;2023-07-13T03:42:54;21.00;70.40
37806;DHT22;25082;50.870;0.022;2023-07-13T03:45:20;21.00;70.40
37806;DHT22;25082;50.870;0.022;2023-07-13T03:47:46;21.00;70.40
37806;DHT22;25082;50.870;0.022;2023-07-13T03:50:12;21.00;70.40
37806;DHT22;25082;50.870;0.022;2023-07-13T03:52:37;21.00;70.40
37806;DHT22;25082;50.870;0.022;2023-07-13T03:55:03;21.00;70.40
37806;DHT22;25082;50.870;0.022;2023-07-13T03:57:29;21.00;70.40
37806;DHT22;25082;50.870;0.022;2023-07-13T03:59:56;21.00;70.40
37806;DHT22;25082;50.870;0.022;2023-07-13T04:02:21;21.00;70.40
37806;DHT22;25082;50.870;0.022;2023-07-13T04:04:47;21.00;70.40
37806;DHT22;25082;50.870;0.022;2023-07-13T04:07:13;21.00;70.40
37806;DHT22;25082;50.870;0.022;2023-07-13T04:09:38;21.00;70.40
37806;DHT22;25082;50.870;0.022;2023-07-13T04:12:05;21.00;70.40
37806;DHT22;25082;50.870;0.022;2023-07-13T04:14:31;21.00;70.40
37806;DHT22;25082;50.870;0.022;2023-07-13T04:16:56;21.00;70.40
37806;DHT22;25082;50.870;0.022;2023-07-13T04:19:23;21.00;70.40
37806;DHT22;25082;50.870;0.022;2023-07-13T04:21:51;21.00;70.40
37806;DHT22;25082;50.870;0.022;2023-07-13T04:24:17;21.00;70.40
37806;DHT22;25082;50.870;0.022;2023-07-13T04:26:43;21.00;70.40
37806;DHT22;25082;50.870;0.022;2023-07-13T04:29:09;21.00;70.40
37806;DHT22;25082;50.870;0.022;2023-07-13T04:31:35;21.00;70.40
37806;DHT22;25082;50.870;0.022;2023-07-13T04:34:00;21.00;70.40
37806;DHT22;25082;50.870;0.022;2023-07-13T04:36:26;21.00;70.40
37806;DHT22;25082;50.870;0.022;2023-07-13T04:38:52;21.00;70.40
37806;DHT22;25082;50.870;0.022;2023-07-13T04:41:20;21.00;70.40
37806;DHT22;25082;50.870;0.022;2023-07-13T04:43:46;21.00;70.40
37806;DHT22;25082;50.870;0.022;2023-07-13T04:46:13;21.00;70.40
37806;DHT22;25082;50.870;0.022;2023-07-13T04:48:39;21.00;70.40
37806;DHT22;25082;50.870;0.022;2023-07-13T04:51:06;21.00;70.40
37806;DHT22;25082;50.870;0.022;2023-07-13T04:53:32;21.00;70.40
37806;DHT22;25082;50.870;0.022;2023-07-13T04:56:00;21.00;70.40
37806;DHT22;25082;50.870;0.022;2023-07-13T04:58:28;21.00;70.50
37806;DHT22;25082;50.870;0.022;2023-07-13T05:01:00;21.00;70.50
37806;DHT22;25082;50.870;0.022;2023-07-13T05:03:26;21.00;70.50
37806;DHT22;25082;50.870;0.022;2023-07-13T05:06:00;21.00;70.50
37806;DHT22;25082;50.870;0.022;2023-07-13T05:08:26;21.00;70.50
37806;DHT22;25082;50.870;0.022;2023-07-13T05:10:52;21.00;70.50
37806;DHT22;25082;50.870;0.022;2023-07-13T05:13:19;20.90;70.50
37806;DHT22;25082;50.870;0.022;2023-07-13T05:15:45;21.00;70.50
37806;DHT22;25082;50.870;0.022;2023-07-13T05:18:11;21.00;70.60
37806;DHT22;25082;50.870;0.022;2023-07-13T05:20:37;20.90;70.50
37806;DHT22;25082;50.870;0.022;2023-07-13T05:23:02;21.00;70.50
37806;DHT22;25082;50.870;0.022;2023-07-13T05:25:28;20.90;70.40
37806;DHT22;25082;50.870;0.022;2023-07-13T05:27:54;21.00;70.50
37806;DHT22;25082;50.870;0.022;2023-07-13T05:30:19;21.00;70.50
37806;DHT22;25082;50.870;0.022;2023-07-13T05:32:45;21.00;70.50
37806;DHT22;25082;50.870;0.022;2023-07-13T05:35:11;20.90;70.50
37806;DHT22;25082;50.870;0.022;2023-07-13T05:37:37;20.90;70.50
37806;DHT22;25082;50.870;0.022;2023-07-13T05:40:03;21.00;70.60
37806;DHT22;25082;50.870;0.022;2023-07-13T05:42:29;20.90;70.50
37806;DHT22;25082;50.870;0.022;2023-07-13T05:44:57;20.90;70.50
37806;DHT22;25082;50.870;0.022;2023-07-13T05:47:23;20.90;70.50
37806;DHT22;25082;50.870;0.022;2023-07-13T05:49:48;20.90;70.60
37806;DHT22;25082;50.870;0.022;2023-07-13T05:52:14;20.90;70.50
37806;DHT22;25082;50.870;0.022;2023-07-13T05:54:40;20.90;70.60
37806;DHT22;25082;50.870;0.022;2023-07-13T05:57:06;20.90;70.50
37806;DHT22;25082;50.870;0.022;2023-07-13T05:59:31;20.90;70.60
37806;DHT22;25082;50.870;0.022;2023-07-13T06:01:57;20.90;70.50
37806;DHT22;25082;50.870;0.022;2023-07-13T06:04:23;20.90;70.60
37806;DHT22;25082;50.870;0.022;2023-07-13T06:06:49;20.90;71.10
37806;DHT22;25082;50.870;0.022;2023-07-13T06:09:14;20.90;70.60
37806;DHT22;25082;50.870;0.022;2023-07-13T06:11:40;20.90;70.60
37806;DHT22;25082;50.870;0.022;2023-07-13T06:14:06;20.90;70.60
37806;DHT22;25082;50.870;0.022;2023-07-13T06:16:32;20.90;70.60
37806;DHT22;25082;50.870;0.022;2023-07-13T06:18:57;20.90;70.60
37806;DHT22;25082;50.870;0.022;2023-07-13T06:21:23;20.90;70.60
37806;DHT22;25082;50.870;0.022;2023-07-13T06:23:50;20.90;70.60
37806;DHT22;25082;50.870;0.022;2023-07-13T06:26:17;20.90;70.60
37806;DHT22;25082;50.870;0.022;2023-07-13T06:28:44;20.90;70.60
37806;DHT22;25082;50.870;0.022;2023-07-13T06:31:11;20.90;70.60
37806;DHT22;25082;50.870;0.022;2023-07-13T06:33:38;20.90;70.60
37806;DHT22;25082;50.870;0.022;2023-07-13T06:36:05;20.90;70.60
37806;DHT22;25082;50.870;0.022;2023-07-13T06:38:32;20.90;70.60
37806;DHT22;25082;50.870;0.022;2023-07-13T06:40:57;20.90;70.60
37806;DHT22;25082;50.870;0.022;2023-07-13T06:43:23;20.90;70.60
37806;DHT22;25082;50.870;0.022;2023-07-13T06:45:51;20.90;70.60
37806;DHT22;25082;50.870;0.022;2023-07-13T06:48:18;20.90;70.60
37806;DHT22;25082;50.870;0.022;2023-07-13T06:50:45;20.90;70.60
37806;DHT22;25082;50.870;0.022;2023-07-13T06:53:12;20.90;70.60
37806;DHT22;25082;50.870;0.022;2023-07-13T06:55:38;20.90;70.60
37806;DHT22;25082;50.870;0.022;2023-07-13T06:58:05;20.90;70.60
37806;DHT22;25082;50.870;0.022;2023-07-13T07:00:30;20.90;70.60
37806;DHT22;25082;50.870;0.022;2023-07-13T07:02:56;20.90;70.60
37806;DHT22;25082;50.870;0.022;2023-07-13T07:05:22;20.90;70.60
37806;DHT22;25082;50.870;0.022;2023-07-13T07:07:49;20.90;70.60
37806;DHT22;25082;50.870;0.022;2023-07-13T07:10:16;20.90;70.60
37806;DHT22;25082;50.870;0.022;2023-07-13T07:12:42;20.90;70.60
37806;DHT22;25082;50.870;0.022;2023-07-13T07:15:08;20.90;70.60
37806;DHT22;25082;50.870;0.022;2023-07-13T07:17:33;20.90;70.60
37806;DHT22;25082;50.870;0.022;2023-07-13T07:19:59;20.90;70.60
37806;DHT22;25082;50.870;0.022;2023-07-13T07:22:25;20.90;70.60
37806;DHT22;25082;50.870;0.022;2023-07-13T07:24:53;20.90;70.60
37806;DHT22;25082;50.870;0.022;2023-07-13T07:27:19;20.90;70.60
37806;DHT22;25082;50.870;0.022;2023-07-13T07:29:45;20.90;70.60
37806;DHT22;25082;50.870;0.022;2023-07-13T07:32:11;20.90;70.60
37806;DHT22;25082;50.870;0.022;2023-07-13T07:34:36;20.90;70.60
37806;DHT22;25082;50.870;0.022;2023-07-13T07:37:03;20.90;70.60
37806;DHT22;25082;50.870;0.022;2023-07-13T07:39:29;20.90;70.60
37806;DHT22;25082;50.870;0.022;2023-07-13T07:41:55;20.90;70.60
37806;DHT22;25082;50.870;0.022;2023-07-13T07:44:21;20.90;70.60
37806;DHT22;25082;50.870;0.022;2023-07-13T07:46:47;20.90;70.50
37806;DHT22;25082;50.870;0.022;2023-07-13T07:49:13;20.90;70.60
37806;DHT22;25082;50.870;0.022;2023-07-13T07:51:39;21.00;70.50
37806;DHT22;25082;50.870;0.022;2023-07-13T07:54:05;21.00;70.40
37806;DHT22;25082;50.870;0.022;2023-07-13T07:56:31;21.00;70.30
37806;DHT22;25082;50.870;0.022;2023-07-13T07:58:57;21.00;70.20
37806;DHT22;25082;50.870;0.022;2023-07-13T08:01:23;21.00;70.10
37806;DHT22;25082;50.870;0.022;2023-07-13T08:03:48;21.00;70.00
37806;DHT22;25082;50.870;0.022;2023-07-13T08:06:14;21.00;70.00
37806;DHT22;25082;50.870;0.022;2023-07-13T08:08:40;21.00;70.00
37806;DHT22;25082;50.870;0.022;2023-07-13T08:11:08;21.00;70.00
37806;DHT22;25082;50.870;0.022;2023-07-13T08:13:34;21.00;70.00
37806;DHT22;25082;50.870;0.022;2023-07-13T08:16:01;21.00;70.00
37806;DHT22;25082;50.870;0.022;2023-07-13T08:18:26;21.00;70.00
37806;DHT22;25082;50.870;0.022;2023-07-13T08:20:54;21.00;70.00
37806;DHT22;25082;50.870;0.022;2023-07-13T08:23:22;21.00;70.00
37806;DHT22;25082;50.870;0.022;2023-07-13T08:25:54;21.00;69.90
37806;DHT22;25082;50.870;0.022;2023-07-13T08:28:21;21.00;69.90
37806;DHT22;25082;50.870;0.022;2023-07-13T08:30:47;21.00;69.90
37806;DHT22;25082;50.870;0.022;2023-07-13T08:33:21;21.00;70.00
37806;DHT22;25082;50.870;0.022;2023-07-13T08:35:49;21.00;69.90
37806;DHT22;25082;50.870;0.022;2023-07-13T08:38:16;21.00;69.90
37806;DHT22;25082;50.870;0.022;2023-07-13T08:40:43;21.00;69.90
37806;DHT22;25082;50.870;0.022;2023-07-13T08:43:13;21.00;70.10
37806;DHT22;25082;50.870;0.022;2023-07-13T08:45:53;21.00;70.00
37806;DHT22;25082;50.870;0.022;2023-07-13T08:48:31;21.00;70.50
37806;DHT22;25082;50.870;0.022;2023-07-13T08:53:46;21.00;69.90
37806;DHT22;25082;50.870;0.022;2023-07-13T08:56:21;21.10;70.00
37806;DHT22;25082;50.870;0.022;2023-07-13T08:58:57;21.10;70.00
37806;DHT22;25082;50.870;0.022;2023-07-13T09:04:37;21.00;70.00
37806;DHT22;25082;50.870;0.022;2023-07-13T09:15:29;21.10;70.00
37806;DHT22;25082;50.870;0.022;2023-07-13T09:21:27;21.10;70.00
37806;DHT22;25082;50.870;0.022;2023-07-13T09:26:47;21.10;69.90
37806;DHT22;25082;50.870;0.022;2023-07-13T09:29:26;21.10;69.90
37806;DHT22;25082;50.870;0.022;2023-07-13T09:31:55;21.10;70.50
37806;DHT22;25082;50.870;0.022;2023-07-13T09:34:25;21.10;70.00
37806;DHT22;25082;50.870;0.022;2023-07-13T09:36:51;21.10;70.00
37806;DHT22;25082;50.870;0.022;2023-07-13T09:39:40;21.10;69.90
37806;DHT22;25082;50.870;0.022;2023-07-13T09:42:19;21.10;70.50
37806;DHT22;25082;50.870;0.022;2023-07-13T09:44:57;21.10;69.90
37806;DHT22;25082;50.870;0.022;2023-07-13T09:47:38;21.10;70.50
37806;DHT22;25082;50.870;0.022;2023-07-13T09:50:15;21.10;69.90
37806;DHT22;25082;50.870;0.022;2023-07-13T09:52:47;21.10;69.80
37806;DHT22;25082;50.870;0.022;2023-07-13T09:55:35;21.10;69.50
37806;DHT22;25082;50.870;0.022;2023-07-13T10:00:39;21.10;69.40
37806;DHT22;25082;50.870;0.022;2023-07-13T10:03:21;21.10;69.30
37806;DHT22;25082;50.870;0.022;2023-07-13T10:05:50;21.20;69.30
37806;DHT22;25082;50.870;0.022;2023-07-13T10:08:23;21.10;69.20
37806;DHT22;25082;50.870;0.022;2023-07-13T10:13:46;21.20;69.60
37806;DHT22;25082;50.870;0.022;2023-07-13T10:16:14;21.20;69.50
37806;DHT22;25082;50.870;0.022;2023-07-13T10:18:50;21.20;69.40
37806;DHT22;25082;50.870;0.022;2023-07-13T10:21:22;21.20;69.30
37806;DHT22;25082;50.870;0.022;2023-07-13T10:24:00;21.20;69.50
37806;DHT22;25082;50.870;0.022;2023-07-13T10:26:32;21.20;69.50
37806;DHT22;25082;50.870;0.022;2023-07-13T10:29:04;21.20;69.60
37806;DHT22;25082;50.870;0.022;2023-07-13T10:31:32;21.20;69.70
37806;DHT22;25082;50.870;0.022;2023-07-13T10:34:00;21.20;69.70
37806;DHT22;25082;50.870;0.022;2023-07-13T10:39:05;21.20;69.80
37806;DHT22;25082;50.870;0.022;2023-07-13T10:41:35;21.20;69.90
37806;DHT22;25082;50.870;0.022;2023-07-13T10:44:04;21.20;69.90
37806;DHT22;25082;50.870;0.022;2023-07-13T10:46:35;21.20;70.00
37806;DHT22;25082;50.870;0.022;2023-07-13T10:49:04;21.30;70.30
37806;DHT22;25082;50.870;0.022;2023-07-13T10:51:31;21.30;70.40
37806;DHT22;25082;50.870;0.022;2023-07-13T10:57:15;21.30;70.90
37806;DHT22;25082;50.870;0.022;2023-07-13T11:00:10;21.30;70.60
37806;DHT22;25082;50.870;0.022;2023-07-13T11:02:35;21.30;70.80
37806;DHT22;25082;50.870;0.022;2023-07-13T11:05:20;21.30;71.00
37806;DHT22;25082;50.870;0.022;2023-07-13T11:08:17;21.30;70.80
37806;DHT22;25082;50.870;0.022;2023-07-13T11:10:47;21.30;70.70
37806;DHT22;25082;50.870;0.022;2023-07-13T11:19:08;21.30;70.70
37806;DHT22;25082;50.870;0.022;2023-07-13T11:21:33;21.30;70.50
37806;DHT22;25082;50.870;0.022;2023-07-13T11:24:16;21.30;70.60
37806;DHT22;25082;50.870;0.022;2023-07-13T11:31:59;21.30;70.60
37806;DHT22;25082;50.870;0.022;2023-07-13T11:34:35;21.40;70.40
37806;DHT22;25082;50.870;0.022;2023-07-13T11:37:02;21.30;70.20
37806;DHT22;25082;50.870;0.022;2023-07-13T11:39:33;21.30;70.30
37806;DHT22;25082;50.870;0.022;2023-07-13T11:42:08;21.40;70.30
37806;DHT22;25082;50.870;0.022;2023-07-13T11:44:42;21.30;70.70
37806;DHT22;25082;50.870;0.022;2023-07-13T11:47:17;21.40;70.30
37806;DHT22;25082;50.870;0.022;2023-07-13T11:49:45;21.30;69.90
37806;DHT22;25082;50.870;0.022;2023-07-13T11:52:21;21.30;69.90
37806;DHT22;25082;50.870;0.022;2023-07-13T11:54:52;21.30;70.00
37806;DHT22;25082;50.870;0.022;2023-07-13T11:57:37;21.30;70.00
37806;DHT22;25082;50.870;0.022;2023-07-13T12:00:12;21.30;69.70
37806;DHT22;25082;50.870;0.022;2023-07-13T12:02:43;21.30;70.00
37806;DHT22;25082;50.870;0.022;2023-07-13T12:05:13;21.30;70.00
37806;DHT22;25082;50.870;0.022;2023-07-13T12:07:40;21.30;70.10
37806;DHT22;25082;50.870;0.022;2023-07-13T12:12:35;21.40;70.20
37806;DHT22;25082;50.870;0.022;2023-07-13T12:15:06;21.40;70.10
37806;DHT22;25082;50.870;0.022;2023-07-13T12:17:32;21.40;70.20
37806;DHT22;25082;50.870;0.022;2023-07-13T12:19:59;21.40;70.20
37806;DHT22;25082;50.870;0.022;2023-07-13T12:22:25;21.40;69.90
37806;DHT22;25082;50.870;0.022;2023-07-13T12:24:51;21.40;70.00
37806;DHT22;25082;50.870;0.022;2023-07-13T12:27:27;21.40;69.80
37806;DHT22;25082;50.870;0.022;2023-07-13T12:30:05;21.40;69.60
37806;DHT22;25082;50.870;0.022;2023-07-13T12:32:31;21.40;69.70
37806;DHT22;25082;50.870;0.022;2023-07-13T12:35:17;21.40;69.60
37806;DHT22;25082;50.870;0.022;2023-07-13T12:37:46;21.40;69.60
37806;DHT22;25082;50.870;0.022;2023-07-13T12:40:20;21.40;69.60
37806;DHT22;25082;50.870;0.022;2023-07-13T12:42:49;21.40;69.40
37806;DHT22;25082;50.870;0.022;2023-07-13T12:45:27;21.40;69.40
37806;DHT22;25082;50.870;0.022;2023-07-13T12:47:59;21.40;69.60
37806;DHT22;25082;50.870;0.022;2023-07-13T12:50:30;21.40;69.80
37806;DHT22;25082;50.870;0.022;2023-07-13T12:53:04;21.40;69.80
37806;DHT22;25082;50.870;0.022;2023-07-13T12:55:41;21.40;69.70
37806;DHT22;25082;50.870;0.022;2023-07-13T12:58:25;21.40;69.60
37806;DHT22;25082;50.870;0.022;2023-07-13T13:00:54;21.40;69.50
37806;DHT22;25082;50.870;0.022;2023-07-13T13:06:06;21.50;69.60
37806;DHT22;25082;50.870;0.022;2023-07-13T13:08:36;21.40;69.40
37806;DHT22;25082;50.870;0.022;2023-07-13T13:11:02;21.50;69.00
37806;DHT22;25082;50.870;0.022;2023-07-13T13:13:28;21.40;68.70
37806;DHT22;25082;50.870;0.022;2023-07-13T13:15:54;21.40;68.80
37806;DHT22;25082;50.870;0.022;2023-07-13T13:18:22;21.40;68.90
37806;DHT22;25082;50.870;0.022;2023-07-13T13:20:50;21.40;69.00
37806;DHT22;25082;50.870;0.022;2023-07-13T13:23:19;21.50;69.30
37806;DHT22;25082;50.870;0.022;2023-07-13T13:25:50;21.50;69.30
37806;DHT22;25082;50.870;0.022;2023-07-13T13:28:20;21.50;69.60
37806;DHT22;25082;50.870;0.022;2023-07-13T13:30:48;21.50;69.50
37806;DHT22;25082;50.870;0.022;2023-07-13T13:33:18;21.50;69.60
37806;DHT22;25082;50.870;0.022;2023-07-13T13:35:44;21.50;69.50
37806;DHT22;25082;50.870;0.022;2023-07-13T13:38:24;21.50;69.60
37806;DHT22;25082;50.870;0.022;2023-07-13T13:40:50;21.50;69.50
37806;DHT22;25082;50.870;0.022;2023-07-13T13:43:25;21.50;69.60
37806;DHT22;25082;50.870;0.022;2023-07-13T13:45:53;21.50;69.50
37806;DHT22;25082;50.870;0.022;2023-07-13T13:48:25;21.50;69.60
37806;DHT22;25082;50.870;0.022;2023-07-13T13:50:56;21.50;69.60
37806;DHT22;25082;50.870;0.022;2023-07-13T13:53:23;21.50;69.60
37806;DHT22;25082;50.870;0.022;2023-07-13T13:55:52;21.50;69.50
37806;DHT22;25082;50.870;0.022;2023-07-13T13:58:20;21.50;69.50
37806;DHT22;25082;50.870;0.022;2023-07-13T14:00:47;21.50;69.30
37806;DHT22;25082;50.870;0.022;2023-07-13T14:03:21;21.60;69.30
37806;DHT22;25082;50.870;0.022;2023-07-13T14:05:48;21.50;68.20
37806;DHT22;25082;50.870;0.022;2023-07-13T14:08:17;21.50;68.50
37806;DHT22;25082;50.870;0.022;2023-07-13T14:10:48;21.50;68.60
37806;DHT22;25082;50.870;0.022;2023-07-13T14:13:40;21.50;68.40
37806;DHT22;25082;50.870;0.022;2023-07-13T14:16:19;21.50;69.00
37806;DHT22;25082;50.870;0.022;2023-07-13T14:18:47;21.50;68.60
37806;DHT22;25082;50.870;0.022;2023-07-13T14:21:15;21.50;68.20
37806;DHT22;25082;50.870;0.022;2023-07-13T14:23:44;21.40;68.10
37806;DHT22;25082;50.870;0.022;2023-07-13T14:26:16;21.40;67.90
37806;DHT22;25082;50.870;0.022;2023-07-13T14:28:43;21.40;67.40
37806;DHT22;25082;50.870;0.022;2023-07-13T14:31:11;21.40;67.00
37806;DHT22;25082;50.870;0.022;2023-07-13T14:33:38;21.40;67.40
37806;DHT22;25082;50.870;0.022;2023-07-13T14:36:21;21.40;67.10
37806;DHT22;25082;50.870;0.022;2023-07-13T14:38:49;21.40;67.30
37806;DHT22;25082;50.870;0.022;2023-07-13T14:41:15;21.40;67.30
37806;DHT22;25082;50.870;0.022;2023-07-13T14:43:41;21.40;66.60
37806;DHT22;25082;50.870;0.022;2023-07-13T14:46:29;21.40;67.10
37806;DHT22;25082;50.870;0.022;2023-07-13T14:49:02;21.40;67.30
37806;DHT22;25082;50.870;0.022;2023-07-13T14:51:30;21.40;66.20
37806;DHT22;25082;50.870;0.022;2023-07-13T14:53:56;21.40;66.30
37806;DHT22;25082;50.870;0.022;2023-07-13T14:56:22;21.40;66.30
37806;DHT22;25082;50.870;0.022;2023-07-13T14:58:48;21.30;66.50
37806;DHT22;25082;50.870;0.022;2023-07-13T15:01:15;21.40;66.90
37806;DHT22;25082;50.870;0.022;2023-07-13T15:03:45;21.40;66.90
37806;DHT22;25082;50.870;0.022;2023-07-13T15:06:12;21.40;66.80
37806;DHT22;25082;50.870;0.022;2023-07-13T15:08:38;21.40;66.90
37806;DHT22;25082;50.870;0.022;2023-07-13T15:11:07;21.40;66.90
37806;DHT22;25082;50.870;0.022;2023-07-13T15:13:33;21.40;66.70
37806;DHT22;25082;50.870;0.022;2023-07-13T15:16:01;21.40;67.10
37806;DHT22;25082;50.870;0.022;2023-07-13T15:18:27;21.40;67.20
37806;DHT22;25082;50.870;0.022;2023-07-13T15:20:54;21.40;67.20
37806;DHT22;25082;50.870;0.022;2023-07-13T15:23:22;21.40;67.40
37806;DHT22;25082;50.870;0.022;2023-07-13T15:25:52;21.40;67.60
37806;DHT22;25082;50.870;0.022;2023-07-13T15:28:18;21.40;67.60
37806;DHT22;25082;50.870;0.022;2023-07-13T15:30:46;21.40;67.40
37806;DHT22;25082;50.870;0.022;2023-07-13T15:35:43;21.50;67.30
37806;DHT22;25082;50.870;0.022;2023-07-13T15:38:17;21.50;67.10
37806;DHT22;25082;50.870;0.022;2023-07-13T15:40:44;21.50;67.10
37806;DHT22;25082;50.870;0.022;2023-07-13T15:43:11;21.50;67.10
37806;DHT22;25082;50.870;0.022;2023-07-13T15:45:38;21.50;67.00
37806;DHT22;25082;50.870;0.022;2023-07-13T15:50:44;21.50;67.00
37806;DHT22;25082;50.870;0.022;2023-07-13T15:53:10;21.50;67.00
37806;DHT22;25082;50.870;0.022;2023-07-13T15:55:39;21.50;67.10
37806;DHT22;25082;50.870;0.022;2023-07-13T15:58:11;21.50;67.30
37806;DHT22;25082;50.870;0.022;2023-07-13T16:00:37;21.50;67.40
37806;DHT22;25082;50.870;0.022;2023-07-13T16:03:03;21.50;67.40
37806;DHT22;25082;50.870;0.022;2023-07-13T16:05:30;21.50;67.50
37806;DHT22;25082;50.870;0.022;2023-07-13T16:07:57;21.50;67.40
37806;DHT22;25082;50.870;0.022;2023-07-13T16:10:34;21.60;67.40
37806;DHT22;25082;50.870;0.022;2023-07-13T16:13:03;21.60;67.40
37806;DHT22;25082;50.870;0.022;2023-07-13T16:15:33;21.60;67.50
37806;DHT22;25082;50.870;0.022;2023-07-13T16:17:59;21.60;67.50
37806;DHT22;25082;50.870;0.022;2023-07-13T16:20:25;21.60;67.40
37806;DHT22;25082;50.870;0.022;2023-07-13T16:22:53;21.60;68.00
37806;DHT22;25082;50.870;0.022;2023-07-13T16:25:23;21.60;67.50
37806;DHT22;25082;50.870;0.022;2023-07-13T16:27:50;21.60;67.50
37806;DHT22;25082;50.870;0.022;2023-07-13T16:30:23;21.60;67.60
37806;DHT22;25082;50.870;0.022;2023-07-13T16:32:55;21.60;67.70
37806;DHT22;25082;50.870;0.022;2023-07-13T16:35:27;21.60;67.80